Miami, Florida
Traffic Map
Current Weather Conditions
Miami, Florida
Broken Clouds
Broken Clouds
82°
Feels Like: 83°
Wind Chill: 82° Ceiling: 7500
Heat Index: 83° Visibility: 10mi
Dew Point: 63° Wind: 16mph
Humidity: 52% Direction: 90° (E)
Pressure: 30.05in Gusts: 0mph
Raw Report DataKMIA 282153Z 09014KT 10SM FEW039 SCT047 BKN075 BKN250 28/17 A3005 RMK AO2 SLP176 T02780172
Traffic Incident Summary
Active as of:
Severity:
Category:
InformationThere was an issue retrieving the traffic information for this location. Please try a different location or try again shortly.
Advertisements
Track Severe Weather on mobile